Aeroporto :
LOGIN :

Iscrizione | Disclaimer

   EN    FR    IT 

 










Sommario :    VFR   VFR Marginale   IFR   IFR Intensivo   IFR Molto Intensivo
Visibilità : 
Base nubi : 
>= 8 km
>= 3000ft
5 / 8 km
1000 / 3000 ft
1500m / 5 km
500 / 1000 ft
800 / 1500m
200 / 500 ft
< 800m
< 200 ft
Simboli :   Temporali  Nebbia  Neve Forte  Precipitazioni Forti  Vento > 20 kt
SIGMETs :   Varie  Temporali  Ghiacco  Turbolenza  Onda orograficha  Ceneri Vulcaniche






- Altitudine del aeroporto : 325 ft


LPCS - Cascais

ULTIMO METAR :
  • 251430Z 28007KT 240V320 9000 FEW004 SCT008 BKN012 15/12 Q1026

METARs OBSOLETI :
  • 251400Z 28010KT 250V310 9000 VCSH BKN018 15/11 Q1026
  • 251330Z 30009KT 9999 VCSH FEW017 BKN024 16/11 Q1026
  • 251300Z 33011KT 280V360 9999 SCT025 BKN030 17/10 Q1026
  • 251230Z 33010KT 300V360 9999 FEW025 BKN030 16/10 Q1027
  • 251200Z 30008KT 280V340 9999 FEW025 SCT030 16/09 Q1027
  • 251130Z 31009KT 250V350 9999 FEW025 SCT030 16/09 Q1027

TAF TAF LPCS
Valido dal 25 a 15 ore il 26 a 00 ore UTC


251400Z 2515/2524 28008KT 9999 BKN016
PROB40
TEMPO 2515/2517 5000 -RADZ BR SCT004 BKN008
BECMG 2516/2518 35013KT
BECMG 2517/2520 SCT016 BKN030



MetMap, La meteo Aeronautica in un colpo d'occhio ! - Copyright ORBIFLY Dicembre 2007 - Disclaimer

ORBIFLY MET'MAP TEAM :

Programmazione e sviluppo : Alexandra Zaïnal
Concezione : Baudouin d'Aumeries
Aiuto per la programmazione : Marc-Olivier Méhu
Supporto tecnico e logistico : Manuel Goepfert
Aiuto per la traduzione : Arnaldo La Scala

Contatto : metmap@orbifly.com




FONTI E CREDITI :

   NOAA